sensor_id;sensor_type;location;lat;lon;timestamp;temperature;humidity
14735;DHT22;7458;49.002;8.472;2022-09-28T00:00:30;11.50;99.90
14735;DHT22;7458;49.002;8.472;2022-09-28T00:02:57;11.50;99.90
14735;DHT22;7458;49.002;8.472;2022-09-28T00:05:24;11.60;99.90
14735;DHT22;7458;49.002;8.472;2022-09-28T00:07:53;11.50;99.90
14735;DHT22;7458;49.002;8.472;2022-09-28T00:10:21;11.50;99.90
14735;DHT22;7458;49.002;8.472;2022-09-28T00:12:48;11.50;99.90
14735;DHT22;7458;49.002;8.472;2022-09-28T00:15:15;11.50;99.90
14735;DHT22;7458;49.002;8.472;2022-09-28T00:17:41;11.50;99.90
14735;DHT22;7458;49.002;8.472;2022-09-28T00:20:10;11.50;99.90
14735;DHT22;7458;49.002;8.472;2022-09-28T00:22:36;11.50;99.90
14735;DHT22;7458;49.002;8.472;2022-09-28T00:25:04;11.50;99.90
14735;DHT22;7458;49.002;8.472;2022-09-28T00:27:31;11.50;99.90
14735;DHT22;7458;49.002;8.472;2022-09-28T00:29:56;11.50;99.90
14735;DHT22;7458;49.002;8.472;2022-09-28T00:32:23;11.50;99.90
14735;DHT22;7458;49.002;8.472;2022-09-28T00:34:50;11.50;99.90
14735;DHT22;7458;49.002;8.472;2022-09-28T00:37:17;11.40;99.90
14735;DHT22;7458;49.002;8.472;2022-09-28T00:39:44;11.40;99.90
14735;DHT22;7458;49.002;8.472;2022-09-28T00:42:19;11.40;99.90
14735;DHT22;7458;49.002;8.472;2022-09-28T00:44:48;11.40;99.90
14735;DHT22;7458;49.002;8.472;2022-09-28T00:50:36;11.30;99.90
14735;DHT22;7458;49.002;8.472;2022-09-28T00:53:10;11.20;99.90
14735;DHT22;7458;49.002;8.472;2022-09-28T00:55:45;11.20;99.90
14735;DHT22;7458;49.002;8.472;2022-09-28T00:58:18;11.20;99.90
14735;DHT22;7458;49.002;8.472;2022-09-28T01:00:48;11.20;99.90
14735;DHT22;7458;49.002;8.472;2022-09-28T01:03:15;11.10;99.90
14735;DHT22;7458;49.002;8.472;2022-09-28T01:05:42;11.10;99.90
14735;DHT22;7458;49.002;8.472;2022-09-28T01:08:10;11.10;99.90
14735;DHT22;7458;49.002;8.472;2022-09-28T01:10:38;11.00;99.90
14735;DHT22;7458;49.002;8.472;2022-09-28T01:13:05;11.00;99.90
14735;DHT22;7458;49.002;8.472;2022-09-28T01:15:35;10.90;99.90
14735;DHT22;7458;49.002;8.472;2022-09-28T01:18:33;10.90;99.90
14735;DHT22;7458;49.002;8.472;2022-09-28T01:21:23;11.00;99.90
14735;DHT22;7458;49.002;8.472;2022-09-28T01:24:22;11.00;99.90
14735;DHT22;7458;49.002;8.472;2022-09-28T01:30:03;11.00;99.90
14735;DHT22;7458;49.002;8.472;2022-09-28T01:32:54;11.00;99.90
14735;DHT22;7458;49.002;8.472;2022-09-28T01:35:43;11.00;99.90
14735;DHT22;7458;49.002;8.472;2022-09-28T01:38:21;11.00;99.90
14735;DHT22;7458;49.002;8.472;2022-09-28T01:40:54;10.90;99.90
14735;DHT22;7458;49.002;8.472;2022-09-28T01:43:25;10.90;99.90
14735;DHT22;7458;49.002;8.472;2022-09-28T01:46:06;10.90;99.90
14735;DHT22;7458;49.002;8.472;2022-09-28T01:48:53;10.90;99.90
14735;DHT22;7458;49.002;8.472;2022-09-28T01:54:19;10.90;99.90
14735;DHT22;7458;49.002;8.472;2022-09-28T01:56:59;10.90;99.90
14735;DHT22;7458;49.002;8.472;2022-09-28T01:59:33;10.90;99.90
14735;DHT22;7458;49.002;8.472;2022-09-28T02:02:11;11.00;99.90
14735;DHT22;7458;49.002;8.472;2022-09-28T02:04:44;10.90;99.90
14735;DHT22;7458;49.002;8.472;2022-09-28T02:07:23;10.90;99.90
14735;DHT22;7458;49.002;8.472;2022-09-28T02:10:03;10.90;99.90
14735;DHT22;7458;49.002;8.472;2022-09-28T02:13:02;11.00;99.90
14735;DHT22;7458;49.002;8.472;2022-09-28T02:15:48;11.00;99.90
14735;DHT22;7458;49.002;8.472;2022-09-28T02:18:14;11.00;99.90
14735;DHT22;7458;49.002;8.472;2022-09-28T02:20:47;11.10;99.90
14735;DHT22;7458;49.002;8.472;2022-09-28T02:23:25;11.10;99.90
14735;DHT22;7458;49.002;8.472;2022-09-28T02:26:01;11.10;99.90
14735;DHT22;7458;49.002;8.472;2022-09-28T02:28:30;11.10;99.90
14735;DHT22;7458;49.002;8.472;2022-09-28T02:30:56;11.10;99.90
14735;DHT22;7458;49.002;8.472;2022-09-28T02:33:29;11.10;99.90
14735;DHT22;7458;49.002;8.472;2022-09-28T02:36:03;11.10;99.90
14735;DHT22;7458;49.002;8.472;2022-09-28T02:38:32;11.10;99.90
14735;DHT22;7458;49.002;8.472;2022-09-28T02:44:42;11.00;99.90
14735;DHT22;7458;49.002;8.472;2022-09-28T02:47:30;11.00;99.90
14735;DHT22;7458;49.002;8.472;2022-09-28T03:04:43;10.90;99.90
14735;DHT22;7458;49.002;8.472;2022-09-28T03:07:30;10.90;99.90
14735;DHT22;7458;49.002;8.472;2022-09-28T03:10:18;10.90;99.90
14735;DHT22;7458;49.002;8.472;2022-09-28T03:12:57;10.90;99.90
14735;DHT22;7458;49.002;8.472;2022-09-28T03:15:26;10.90;99.90
14735;DHT22;7458;49.002;8.472;2022-09-28T03:17:55;10.90;99.90
14735;DHT22;7458;49.002;8.472;2022-09-28T03:20:22;10.40;99.90
14735;DHT22;7458;49.002;8.472;2022-09-28T03:22:48;10.90;99.90
14735;DHT22;7458;49.002;8.472;2022-09-28T03:25:14;10.90;99.90
14735;DHT22;7458;49.002;8.472;2022-09-28T03:27:40;10.90;99.90
14735;DHT22;7458;49.002;8.472;2022-09-28T03:30:07;10.90;99.90
14735;DHT22;7458;49.002;8.472;2022-09-28T03:32:33;10.90;99.90
14735;DHT22;7458;49.002;8.472;2022-09-28T03:34:59;10.90;99.90
14735;DHT22;7458;49.002;8.472;2022-09-28T03:37:28;10.90;99.90
14735;DHT22;7458;49.002;8.472;2022-09-28T03:39:54;11.00;99.90
14735;DHT22;7458;49.002;8.472;2022-09-28T03:42:19;11.00;99.90
14735;DHT22;7458;49.002;8.472;2022-09-28T03:44:45;11.00;99.90
14735;DHT22;7458;49.002;8.472;2022-09-28T03:47:11;11.00;99.90
14735;DHT22;7458;49.002;8.472;2022-09-28T03:49:38;10.90;99.90
14735;DHT22;7458;49.002;8.472;2022-09-28T03:52:04;10.90;99.90
14735;DHT22;7458;49.002;8.472;2022-09-28T03:54:30;10.90;99.90
14735;DHT22;7458;49.002;8.472;2022-09-28T03:56:56;10.90;99.90
14735;DHT22;7458;49.002;8.472;2022-09-28T03:59:22;10.90;99.90
14735;DHT22;7458;49.002;8.472;2022-09-28T04:01:48;10.90;99.90
14735;DHT22;7458;49.002;8.472;2022-09-28T04:04:15;10.90;99.90
14735;DHT22;7458;49.002;8.472;2022-09-28T04:06:41;10.90;99.90
14735;DHT22;7458;49.002;8.472;2022-09-28T04:09:07;10.90;99.90
14735;DHT22;7458;49.002;8.472;2022-09-28T04:11:33;10.90;99.90
14735;DHT22;7458;49.002;8.472;2022-09-28T04:13:59;10.80;99.90
14735;DHT22;7458;49.002;8.472;2022-09-28T04:16:25;10.80;99.90
14735;DHT22;7458;49.002;8.472;2022-09-28T04:18:51;10.80;99.90
14735;DHT22;7458;49.002;8.472;2022-09-28T04:21:18;10.80;99.90
14735;DHT22;7458;49.002;8.472;2022-09-28T04:23:46;10.80;99.90
14735;DHT22;7458;49.002;8.472;2022-09-28T04:28:43;10.80;99.90
14735;DHT22;7458;49.002;8.472;2022-09-28T04:31:29;10.80;99.90
14735;DHT22;7458;49.002;8.472;2022-09-28T04:33:56;10.80;99.90
14735;DHT22;7458;49.002;8.472;2022-09-28T04:36:22;10.80;99.90
14735;DHT22;7458;49.002;8.472;2022-09-28T04:38:51;10.80;99.90
14735;DHT22;7458;49.002;8.472;2022-09-28T04:41:17;10.80;99.90
14735;DHT22;7458;49.002;8.472;2022-09-28T04:43:45;10.80;99.90
14735;DHT22;7458;49.002;8.472;2022-09-28T04:46:11;10.80;99.90
14735;DHT22;7458;49.002;8.472;2022-09-28T04:48:37;10.80;99.90
14735;DHT22;7458;49.002;8.472;2022-09-28T04:51:03;10.80;99.90
14735;DHT22;7458;49.002;8.472;2022-09-28T04:53:29;10.90;99.90
14735;DHT22;7458;49.002;8.472;2022-09-28T04:58:20;10.80;99.90
14735;DHT22;7458;49.002;8.472;2022-09-28T05:00:47;10.90;99.90
14735;DHT22;7458;49.002;8.472;2022-09-28T05:03:19;10.90;99.90
14735;DHT22;7458;49.002;8.472;2022-09-28T05:05:46;10.90;99.90
14735;DHT22;7458;49.002;8.472;2022-09-28T05:08:13;10.90;99.90
14735;DHT22;7458;49.002;8.472;2022-09-28T05:10:39;10.80;99.90
14735;DHT22;7458;49.002;8.472;2022-09-28T05:13:06;10.90;99.90
14735;DHT22;7458;49.002;8.472;2022-09-28T05:15:37;10.80;99.90
14735;DHT22;7458;49.002;8.472;2022-09-28T05:18:03;10.90;99.90
14735;DHT22;7458;49.002;8.472;2022-09-28T05:20:30;10.90;99.90
14735;DHT22;7458;49.002;8.472;2022-09-28T05:22:56;10.90;99.90
14735;DHT22;7458;49.002;8.472;2022-09-28T05:25:22;10.80;99.90
14735;DHT22;7458;49.002;8.472;2022-09-28T05:27:53;10.80;99.90
14735;DHT22;7458;49.002;8.472;2022-09-28T05:30:22;10.90;99.90
14735;DHT22;7458;49.002;8.472;2022-09-28T05:32:48;10.90;99.90
14735;DHT22;7458;49.002;8.472;2022-09-28T05:35:18;10.90;99.90
14735;DHT22;7458;49.002;8.472;2022-09-28T05:37:44;10.90;99.90
14735;DHT22;7458;49.002;8.472;2022-09-28T05:40:10;10.90;99.90
14735;DHT22;7458;49.002;8.472;2022-09-28T05:42:37;10.90;99.90
14735;DHT22;7458;49.002;8.472;2022-09-28T05:45:03;10.90;99.90
14735;DHT22;7458;49.002;8.472;2022-09-28T05:47:29;10.90;99.90
14735;DHT22;7458;49.002;8.472;2022-09-28T05:49:55;10.90;99.90
14735;DHT22;7458;49.002;8.472;2022-09-28T05:52:21;10.90;99.90
14735;DHT22;7458;49.002;8.472;2022-09-28T05:54:47;11.00;99.90
14735;DHT22;7458;49.002;8.472;2022-09-28T05:57:13;11.00;99.90
14735;DHT22;7458;49.002;8.472;2022-09-28T05:59:39;11.00;99.90
14735;DHT22;7458;49.002;8.472;2022-09-28T06:02:06;11.10;99.90
14735;DHT22;7458;49.002;8.472;2022-09-28T06:04:32;11.10;99.90
14735;DHT22;7458;49.002;8.472;2022-09-28T06:06:58;11.10;99.90
14735;DHT22;7458;49.002;8.472;2022-09-28T06:09:24;11.10;99.90
14735;DHT22;7458;49.002;8.472;2022-09-28T06:11:51;11.10;99.90
14735;DHT22;7458;49.002;8.472;2022-09-28T06:14:17;11.10;99.90
14735;DHT22;7458;49.002;8.472;2022-09-28T06:16:43;11.20;99.90
14735;DHT22;7458;49.002;8.472;2022-09-28T06:19:10;11.20;99.90
14735;DHT22;7458;49.002;8.472;2022-09-28T06:21:37;11.10;99.90
14735;DHT22;7458;49.002;8.472;2022-09-28T06:24:04;11.20;99.90
14735;DHT22;7458;49.002;8.472;2022-09-28T06:26:30;11.20;99.90
14735;DHT22;7458;49.002;8.472;2022-09-28T06:28:56;11.20;99.90
14735;DHT22;7458;49.002;8.472;2022-09-28T06:31:22;11.20;99.90
14735;DHT22;7458;49.002;8.472;2022-09-28T06:33:51;11.20;99.90
14735;DHT22;7458;49.002;8.472;2022-09-28T06:36:18;11.30;99.90
14735;DHT22;7458;49.002;8.472;2022-09-28T06:38:45;11.30;99.90
14735;DHT22;7458;49.002;8.472;2022-09-28T06:41:11;11.20;99.90
14735;DHT22;7458;49.002;8.472;2022-09-28T06:43:37;11.20;99.90
14735;DHT22;7458;49.002;8.472;2022-09-28T06:46:07;11.20;99.90
14735;DHT22;7458;49.002;8.472;2022-09-28T06:48:34;11.30;99.90
14735;DHT22;7458;49.002;8.472;2022-09-28T06:51:00;11.30;99.90
14735;DHT22;7458;49.002;8.472;2022-09-28T06:53:27;11.30;99.90
14735;DHT22;7458;49.002;8.472;2022-09-28T06:55:54;11.40;99.90
14735;DHT22;7458;49.002;8.472;2022-09-28T06:58:21;11.40;99.90
14735;DHT22;7458;49.002;8.472;2022-09-28T07:00:50;11.40;99.90
14735;DHT22;7458;49.002;8.472;2022-09-28T07:03:20;11.50;99.90
14735;DHT22;7458;49.002;8.472;2022-09-28T07:05:51;11.40;99.90
14735;DHT22;7458;49.002;8.472;2022-09-28T07:08:21;11.40;99.90
14735;DHT22;7458;49.002;8.472;2022-09-28T07:10:53;11.50;99.90
14735;DHT22;7458;49.002;8.472;2022-09-28T07:13:26;11.60;99.90
14735;DHT22;7458;49.002;8.472;2022-09-28T07:15:56;11.70;99.90
14735;DHT22;7458;49.002;8.472;2022-09-28T07:18:24;11.90;99.90
14735;DHT22;7458;49.002;8.472;2022-09-28T07:20:51;11.90;99.90
14735;DHT22;7458;49.002;8.472;2022-09-28T07:23:17;12.00;99.90
14735;DHT22;7458;49.002;8.472;2022-09-28T07:25:43;12.10;99.90
14735;DHT22;7458;49.002;8.472;2022-09-28T07:28:12;12.20;99.90
14735;DHT22;7458;49.002;8.472;2022-09-28T07:30:39;12.60;99.90
14735;DHT22;7458;49.002;8.472;2022-09-28T07:33:06;12.80;99.90
14735;DHT22;7458;49.002;8.472;2022-09-28T07:35:33;13.00;99.90
14735;DHT22;7458;49.002;8.472;2022-09-28T07:38:04;13.20;99.90
14735;DHT22;7458;49.002;8.472;2022-09-28T07:40:32;13.40;99.90
14735;DHT22;7458;49.002;8.472;2022-09-28T07:43:19;13.60;99.90
14735;DHT22;7458;49.002;8.472;2022-09-28T07:45:47;14.30;99.90
14735;DHT22;7458;49.002;8.472;2022-09-28T07:48:15;14.30;99.90
14735;DHT22;7458;49.002;8.472;2022-09-28T07:50:49;14.20;99.90
14735;DHT22;7458;49.002;8.472;2022-09-28T07:53:24;14.40;99.90
14735;DHT22;7458;49.002;8.472;2022-09-28T07:55:55;14.30;99.90
14735;DHT22;7458;49.002;8.472;2022-09-28T07:58:28;14.30;99.90
14735;DHT22;7458;49.002;8.472;2022-09-28T08:01:01;14.30;99.90
14735;DHT22;7458;49.002;8.472;2022-09-28T08:03:28;14.20;99.90
14735;DHT22;7458;49.002;8.472;2022-09-28T08:06:02;14.20;99.90
14735;DHT22;7458;49.002;8.472;2022-09-28T08:08:33;14.00;99.90
14735;DHT22;7458;49.002;8.472;2022-09-28T08:10:59;13.90;99.90
14735;DHT22;7458;49.002;8.472;2022-09-28T08:13:25;13.80;99.90
14735;DHT22;7458;49.002;8.472;2022-09-28T08:15:52;13.50;99.90
14735;DHT22;7458;49.002;8.472;2022-09-28T08:18:18;13.30;99.90
14735;DHT22;7458;49.002;8.472;2022-09-28T08:20:44;13.10;99.90
14735;DHT22;7458;49.002;8.472;2022-09-28T08:23:28;13.10;99.90
14735;DHT22;7458;49.002;8.472;2022-09-28T08:25:54;13.00;99.90
14735;DHT22;7458;49.002;8.472;2022-09-28T08:28:20;12.90;99.90
14735;DHT22;7458;49.002;8.472;2022-09-28T08:30:47;12.80;99.90
14735;DHT22;7458;49.002;8.472;2022-09-28T08:33:15;12.90;99.90
14735;DHT22;7458;49.002;8.472;2022-09-28T08:35:43;13.00;99.90
14735;DHT22;7458;49.002;8.472;2022-09-28T08:38:09;13.10;99.90
14735;DHT22;7458;49.002;8.472;2022-09-28T08:43:59;13.40;99.90
14735;DHT22;7458;49.002;8.472;2022-09-28T08:46:34;13.40;99.90
14735;DHT22;7458;49.002;8.472;2022-09-28T08:49:15;13.20;99.90
14735;DHT22;7458;49.002;8.472;2022-09-28T08:51:53;13.10;99.90
14735;DHT22;7458;49.002;8.472;2022-09-28T08:54:34;13.10;99.90
14735;DHT22;7458;49.002;8.472;2022-09-28T08:57:21;13.10;99.90
14735;DHT22;7458;49.002;8.472;2022-09-28T08:59:52;13.10;99.90
14735;DHT22;7458;49.002;8.472;2022-09-28T09:02:27;13.00;99.90
14735;DHT22;7458;49.002;8.472;2022-09-28T09:04:59;12.90;99.90
14735;DHT22;7458;49.002;8.472;2022-09-28T09:07:47;12.80;99.90
14735;DHT22;7458;49.002;8.472;2022-09-28T09:13:59;12.80;99.90
14735;DHT22;7458;49.002;8.472;2022-09-28T09:23:33;13.10;99.90
14735;DHT22;7458;49.002;8.472;2022-09-28T09:26:21;13.30;99.90
14735;DHT22;7458;49.002;8.472;2022-09-28T09:29:21;13.30;99.90
14735;DHT22;7458;49.002;8.472;2022-09-28T09:47:06;14.90;99.90
14735;DHT22;7458;49.002;8.472;2022-09-28T09:49:54;15.50;99.90
14735;DHT22;7458;49.002;8.472;2022-09-28T09:52:33;15.30;99.90
14735;DHT22;7458;49.002;8.472;2022-09-28T09:55:42;14.90;99.90
14735;DHT22;7458;49.002;8.472;2022-09-28T09:58:24;14.60;99.90
14735;DHT22;7458;49.002;8.472;2022-09-28T10:01:00;14.80;99.90
14735;DHT22;7458;49.002;8.472;2022-09-28T10:03:33;15.60;99.90
14735;DHT22;7458;49.002;8.472;2022-09-28T10:06:10;16.10;99.90
14735;DHT22;7458;49.002;8.472;2022-09-28T10:08:43;16.20;99.90
14735;DHT22;7458;49.002;8.472;2022-09-28T10:11:24;16.20;99.90
14735;DHT22;7458;49.002;8.472;2022-09-28T10:13:54;16.00;99.90
14735;DHT22;7458;49.002;8.472;2022-09-28T10:16:19;15.90;99.90
14735;DHT22;7458;49.002;8.472;2022-09-28T10:18:46;15.50;99.90
14735;DHT22;7458;49.002;8.472;2022-09-28T10:21:14;15.20;99.90
14735;DHT22;7458;49.002;8.472;2022-09-28T10:23:42;15.10;99.90
14735;DHT22;7458;49.002;8.472;2022-09-28T10:26:11;15.40;99.90
14735;DHT22;7458;49.002;8.472;2022-09-28T10:29:13;15.20;99.90
14735;DHT22;7458;49.002;8.472;2022-09-28T10:31:45;15.00;99.90
14735;DHT22;7458;49.002;8.472;2022-09-28T10:34:15;15.00;99.90
14735;DHT22;7458;49.002;8.472;2022-09-28T10:39:36;14.90;99.90
14735;DHT22;7458;49.002;8.472;2022-09-28T10:42:11;14.70;99.90
14735;DHT22;7458;49.002;8.472;2022-09-28T10:47:24;15.80;99.90
14735;DHT22;7458;49.002;8.472;2022-09-28T10:49:53;16.00;99.90
14735;DHT22;7458;49.002;8.472;2022-09-28T10:52:30;16.00;99.90
14735;DHT22;7458;49.002;8.472;2022-09-28T10:55:21;15.80;99.90
14735;DHT22;7458;49.002;8.472;2022-09-28T10:57:50;15.60;99.90
14735;DHT22;7458;49.002;8.472;2022-09-28T11:00:43;15.60;99.90
14735;DHT22;7458;49.002;8.472;2022-09-28T11:03:26;15.30;99.90
14735;DHT22;7458;49.002;8.472;2022-09-28T11:06:04;15.20;99.90
14735;DHT22;7458;49.002;8.472;2022-09-28T11:08:42;15.20;99.90
14735;DHT22;7458;49.002;8.472;2022-09-28T11:11:12;15.30;99.90
14735;DHT22;7458;49.002;8.472;2022-09-28T11:13:48;15.70;99.90
14735;DHT22;7458;49.002;8.472;2022-09-28T11:16:37;15.90;99.90
14735;DHT22;7458;49.002;8.472;2022-09-28T11:19:26;16.00;99.90
14735;DHT22;7458;49.002;8.472;2022-09-28T11:21:53;16.00;99.90
14735;DHT22;7458;49.002;8.472;2022-09-28T11:24:22;15.80;99.90
14735;DHT22;7458;49.002;8.472;2022-09-28T11:26:51;15.70;99.90
14735;DHT22;7458;49.002;8.472;2022-09-28T11:32:01;15.50;99.90
14735;DHT22;7458;49.002;8.472;2022-09-28T11:34:35;15.30;99.90
14735;DHT22;7458;49.002;8.472;2022-09-28T11:39:39;15.10;99.90
14735;DHT22;7458;49.002;8.472;2022-09-28T11:48:22;15.30;99.90
14735;DHT22;7458;49.002;8.472;2022-09-28T11:51:03;15.30;99.90
14735;DHT22;7458;49.002;8.472;2022-09-28T11:53:36;15.30;99.90
14735;DHT22;7458;49.002;8.472;2022-09-28T11:58:57;15.20;99.90
14735;DHT22;7458;49.002;8.472;2022-09-28T12:01:41;15.20;99.90
14735;DHT22;7458;49.002;8.472;2022-09-28T12:04:25;15.20;99.90
14735;DHT22;7458;49.002;8.472;2022-09-28T12:10:11;15.10;99.90
14735;DHT22;7458;49.002;8.472;2022-09-28T12:12:46;15.20;99.90
14735;DHT22;7458;49.002;8.472;2022-09-28T12:18:18;15.50;99.90
14735;DHT22;7458;49.002;8.472;2022-09-28T12:20:56;15.60;99.90
14735;DHT22;7458;49.002;8.472;2022-09-28T12:23:33;15.70;99.90
14735;DHT22;7458;49.002;8.472;2022-09-28T12:26:05;15.80;99.90
14735;DHT22;7458;49.002;8.472;2022-09-28T12:28:49;15.80;99.90
14735;DHT22;7458;49.002;8.472;2022-09-28T12:31:25;16.20;99.90
14735;DHT22;7458;49.002;8.472;2022-09-28T12:33:59;16.30;99.90
14735;DHT22;7458;49.002;8.472;2022-09-28T12:42:32;16.50;99.90
14735;DHT22;7458;49.002;8.472;2022-09-28T12:45:26;16.70;99.90
14735;DHT22;7458;49.002;8.472;2022-09-28T12:59:35;16.30;99.90
14735;DHT22;7458;49.002;8.472;2022-09-28T13:05:36;16.10;99.90
14735;DHT22;7458;49.002;8.472;2022-09-28T13:11:42;15.90;99.90
14735;DHT22;7458;49.002;8.472;2022-09-28T13:17:29;16.00;99.90
14735;DHT22;7458;49.002;8.472;2022-09-28T13:22:55;15.70;99.90
14735;DHT22;7458;49.002;8.472;2022-09-28T13:25:39;15.70;99.90
14735;DHT22;7458;49.002;8.472;2022-09-28T13:28:13;16.00;99.90
14735;DHT22;7458;49.002;8.472;2022-09-28T13:30:43;17.30;99.90
14735;DHT22;7458;49.002;8.472;2022-09-28T13:33:27;17.30;99.90
14735;DHT22;7458;49.002;8.472;2022-09-28T13:35:58;17.20;99.90
14735;DHT22;7458;49.002;8.472;2022-09-28T13:38:29;17.10;99.90
14735;DHT22;7458;49.002;8.472;2022-09-28T13:41:10;17.00;99.30
14735;DHT22;7458;49.002;8.472;2022-09-28T14:01:57;16.50;95.40
14735;DHT22;7458;49.002;8.472;2022-09-28T14:04:58;16.50;94.30
14735;DHT22;7458;49.002;8.472;2022-09-28T14:07:24;16.50;94.30
14735;DHT22;7458;49.002;8.472;2022-09-28T14:12:52;16.10;92.40
14735;DHT22;7458;49.002;8.472;2022-09-28T14:15:39;16.00;93.40
14735;DHT22;7458;49.002;8.472;2022-09-28T14:18:25;16.40;99.20
14735;DHT22;7458;49.002;8.472;2022-09-28T14:27:22;15.80;94.30
14735;DHT22;7458;49.002;8.472;2022-09-28T14:32:55;15.60;96.30
14735;DHT22;7458;49.002;8.472;2022-09-28T14:35:29;15.70;96.10
14735;DHT22;7458;49.002;8.472;2022-09-28T14:38:19;15.60;96.40
14735;DHT22;7458;49.002;8.472;2022-09-28T14:41:06;15.60;96.80
14735;DHT22;7458;49.002;8.472;2022-09-28T14:56:44;16.00;95.40
14735;DHT22;7458;49.002;8.472;2022-09-28T14:59:21;16.10;95.90
14735;DHT22;7458;49.002;8.472;2022-09-28T15:01:54;16.10;95.60
14735;DHT22;7458;49.002;8.472;2022-09-28T15:04:27;16.10;95.00
14735;DHT22;7458;49.002;8.472;2022-09-28T15:06:54;16.00;94.90
14735;DHT22;7458;49.002;8.472;2022-09-28T15:09:33;15.90;95.10
14735;DHT22;7458;49.002;8.472;2022-09-28T15:12:01;15.70;94.90
14735;DHT22;7458;49.002;8.472;2022-09-28T15:15:06;15.70;94.60
14735;DHT22;7458;49.002;8.472;2022-09-28T15:17:47;15.50;94.60
14735;DHT22;7458;49.002;8.472;2022-09-28T15:20:32;15.50;95.50
14735;DHT22;7458;49.002;8.472;2022-09-28T15:23:02;15.50;96.70
14735;DHT22;7458;49.002;8.472;2022-09-28T15:25:30;15.40;97.80
14735;DHT22;7458;49.002;8.472;2022-09-28T15:27:58;15.40;98.80
14735;DHT22;7458;49.002;8.472;2022-09-28T15:30:34;15.30;99.60
14735;DHT22;7458;49.002;8.472;2022-09-28T15:33:02;15.10;99.90
14735;DHT22;7458;49.002;8.472;2022-09-28T15:36:07;14.90;99.90
14735;DHT22;7458;49.002;8.472;2022-09-28T15:38:39;14.70;99.90
14735;DHT22;7458;49.002;8.472;2022-09-28T15:41:07;14.60;99.90
14735;DHT22;7458;49.002;8.472;2022-09-28T15:43:35;14.50;99.90
14735;DHT22;7458;49.002;8.472;2022-09-28T15:46:20;14.50;99.90
14735;DHT22;7458;49.002;8.472;2022-09-28T15:48:56;14.40;99.90
14735;DHT22;7458;49.002;8.472;2022-09-28T15:51:24;14.50;99.90
14735;DHT22;7458;49.002;8.472;2022-09-28T15:54:02;14.40;99.90
14735;DHT22;7458;49.002;8.472;2022-09-28T15:56:52;14.50;99.90
14735;DHT22;7458;49.002;8.472;2022-09-28T15:59:34;14.40;99.90
14735;DHT22;7458;49.002;8.472;2022-09-28T16:15:09;13.80;99.90
14735;DHT22;7458;49.002;8.472;2022-09-28T16:17:36;13.80;99.90
14735;DHT22;7458;49.002;8.472;2022-09-28T16:23:18;13.80;99.90
14735;DHT22;7458;49.002;8.472;2022-09-28T16:34:08;13.70;99.90
14735;DHT22;7458;49.002;8.472;2022-09-28T16:36:43;13.70;99.90
14735;DHT22;7458;49.002;8.472;2022-09-28T16:39:14;13.60;99.90
14735;DHT22;7458;49.002;8.472;2022-09-28T16:41:45;13.50;99.90
14735;DHT22;7458;49.002;8.472;2022-09-28T16:44:18;13.50;99.90
14735;DHT22;7458;49.002;8.472;2022-09-28T16:46:49;13.50;99.90
14735;DHT22;7458;49.002;8.472;2022-09-28T16:49:16;13.50;99.90
14735;DHT22;7458;49.002;8.472;2022-09-28T16:51:46;13.60;99.90
14735;DHT22;7458;49.002;8.472;2022-09-28T16:54:16;13.60;99.90
14735;DHT22;7458;49.002;8.472;2022-09-28T16:57:11;13.60;99.90
14735;DHT22;7458;49.002;8.472;2022-09-28T16:59:39;13.60;99.90
14735;DHT22;7458;49.002;8.472;2022-09-28T17:02:18;13.60;99.90
14735;DHT22;7458;49.002;8.472;2022-09-28T17:04:49;13.60;99.90
14735;DHT22;7458;49.002;8.472;2022-09-28T17:07:15;13.50;99.90
14735;DHT22;7458;49.002;8.472;2022-09-28T17:09:44;13.40;99.90
14735;DHT22;7458;49.002;8.472;2022-09-28T17:12:19;13.30;99.90
14735;DHT22;7458;49.002;8.472;2022-09-28T17:14:47;13.10;99.90
14735;DHT22;7458;49.002;8.472;2022-09-28T17:17:13;12.80;99.90
14735;DHT22;7458;49.002;8.472;2022-09-28T17:19:40;12.70;99.90
14735;DHT22;7458;49.002;8.472;2022-09-28T17:22:07;12.40;99.90
14735;DHT22;7458;49.002;8.472;2022-09-28T17:24:34;12.40;99.90
14735;DHT22;7458;49.002;8.472;2022-09-28T17:27:00;12.30;99.90
14735;DHT22;7458;49.002;8.472;2022-09-28T17:29:28;12.30;99.90
14735;DHT22;7458;49.002;8.472;2022-09-28T17:31:54;12.40;99.90
14735;DHT22;7458;49.002;8.472;2022-09-28T17:34:26;12.50;99.90
14735;DHT22;7458;49.002;8.472;2022-09-28T17:36:52;12.50;99.90
14735;DHT22;7458;49.002;8.472;2022-09-28T17:39:18;12.50;99.90
14735;DHT22;7458;49.002;8.472;2022-09-28T17:41:44;12.50;99.90
14735;DHT22;7458;49.002;8.472;2022-09-28T17:44:10;12.50;99.90
14735;DHT22;7458;49.002;8.472;2022-09-28T17:46:42;12.40;99.90
14735;DHT22;7458;49.002;8.472;2022-09-28T17:49:10;12.30;99.90
14735;DHT22;7458;49.002;8.472;2022-09-28T17:51:37;12.20;99.90
14735;DHT22;7458;49.002;8.472;2022-09-28T17:54:04;12.20;99.90
14735;DHT22;7458;49.002;8.472;2022-09-28T17:56:31;12.20;99.90
14735;DHT22;7458;49.002;8.472;2022-09-28T17:59:05;12.20;99.90
14735;DHT22;7458;49.002;8.472;2022-09-28T18:01:37;12.30;99.90
14735;DHT22;7458;49.002;8.472;2022-09-28T18:04:05;12.20;99.90
14735;DHT22;7458;49.002;8.472;2022-09-28T18:06:40;12.20;99.90
14735;DHT22;7458;49.002;8.472;2022-09-28T18:09:10;12.10;99.90
14735;DHT22;7458;49.002;8.472;2022-09-28T18:11:38;12.10;99.90
14735;DHT22;7458;49.002;8.472;2022-09-28T18:14:07;12.20;99.90
14735;DHT22;7458;49.002;8.472;2022-09-28T18:16:33;12.20;99.90
14735;DHT22;7458;49.002;8.472;2022-09-28T18:18:59;12.20;99.90
14735;DHT22;7458;49.002;8.472;2022-09-28T18:21:25;12.20;99.90
14735;DHT22;7458;49.002;8.472;2022-09-28T18:23:50;12.20;99.90
14735;DHT22;7458;49.002;8.472;2022-09-28T18:26:16;12.20;99.90
14735;DHT22;7458;49.002;8.472;2022-09-28T18:28:44;12.20;99.90
14735;DHT22;7458;49.002;8.472;2022-09-28T18:31:11;12.20;99.90
14735;DHT22;7458;49.002;8.472;2022-09-28T18:33:38;12.20;99.90
14735;DHT22;7458;49.002;8.472;2022-09-28T18:36:06;12.20;99.90
14735;DHT22;7458;49.002;8.472;2022-09-28T18:38:35;12.20;99.90
14735;DHT22;7458;49.002;8.472;2022-09-28T18:41:09;12.20;99.90
14735;DHT22;7458;49.002;8.472;2022-09-28T18:43:40;12.20;99.90
14735;DHT22;7458;49.002;8.472;2022-09-28T18:46:08;12.20;99.90
14735;DHT22;7458;49.002;8.472;2022-09-28T18:48:36;12.20;99.90
14735;DHT22;7458;49.002;8.472;2022-09-28T18:51:06;12.20;99.90
14735;DHT22;7458;49.002;8.472;2022-09-28T18:53:33;12.20;99.90
14735;DHT22;7458;49.002;8.472;2022-09-28T18:56:04;12.10;99.90
14735;DHT22;7458;49.002;8.472;2022-09-28T18:58:35;12.10;99.90
14735;DHT22;7458;49.002;8.472;2022-09-28T19:01:12;12.10;99.90
14735;DHT22;7458;49.002;8.472;2022-09-28T19:03:39;12.10;99.90
14735;DHT22;7458;49.002;8.472;2022-09-28T19:06:09;12.00;99.90
14735;DHT22;7458;49.002;8.472;2022-09-28T19:08:38;12.00;99.90
14735;DHT22;7458;49.002;8.472;2022-09-28T19:11:09;11.90;99.90
14735;DHT22;7458;49.002;8.472;2022-09-28T19:13:37;11.90;99.90
14735;DHT22;7458;49.002;8.472;2022-09-28T19:16:11;11.90;99.90
14735;DHT22;7458;49.002;8.472;2022-09-28T19:18:40;11.90;99.90
14735;DHT22;7458;49.002;8.472;2022-09-28T19:21:08;11.90;99.90